createdAt,value
2017-11-04T00:00:11.215Z,1033.59
2017-11-04T00:01:11.200Z,1033.56
2017-11-04T00:02:11.188Z,1033.6
2017-11-04T00:03:11.176Z,1033.57
2017-11-04T00:04:11.162Z,1033.58
2017-11-04T00:05:11.148Z,1033.56
2017-11-04T00:06:11.135Z,1033.54
2017-11-04T00:07:11.126Z,1033.54
2017-11-04T00:08:11.110Z,1033.53
2017-11-04T00:09:11.097Z,1033.53
2017-11-04T00:10:11.084Z,1033.51
2017-11-04T00:11:11.072Z,1033.47
2017-11-04T00:12:11.058Z,1033.49
2017-11-04T00:13:11.045Z,1033.49
2017-11-04T00:14:11.032Z,1033.46
2017-11-04T00:15:11.019Z,1033.46
2017-11-04T00:16:11.007Z,1033.5
2017-11-04T00:17:10.993Z,1033.45
2017-11-04T00:18:10.980Z,1033.47
2017-11-04T00:19:10.968Z,1033.44
2017-11-04T00:20:10.953Z,1033.45
2017-11-04T00:21:10.941Z,1033.48
2017-11-04T00:22:10.928Z,1033.46
2017-11-04T00:23:10.915Z,1033.47
2017-11-04T00:24:10.902Z,1033.45
2017-11-04T00:25:10.892Z,1033.47
2017-11-04T00:26:10.876Z,1033.43
2017-11-04T00:27:10.863Z,1033.43
2017-11-04T00:28:10.851Z,1033.39
2017-11-04T00:29:10.836Z,1033.43
2017-11-04T00:30:10.825Z,1033.42
2017-11-04T00:31:10.810Z,1033.44
2017-11-04T00:32:10.798Z,1033.4
2017-11-04T00:33:10.786Z,1033.42
2017-11-04T00:34:10.772Z,1033.41
2017-11-04T00:35:10.759Z,1033.4
2017-11-04T00:36:10.746Z,1033.41
2017-11-04T00:37:10.734Z,1033.41
2017-11-04T00:38:10.720Z,1033.4
2017-11-04T00:39:10.708Z,1033.39
2017-11-04T00:40:10.693Z,1033.37
2017-11-04T00:41:10.682Z,1033.38
2017-11-04T00:42:10.666Z,1033.36
2017-11-04T00:43:10.655Z,1033.36
2017-11-04T00:44:10.642Z,1033.34
2017-11-04T00:45:10.628Z,1033.34
2017-11-04T00:46:10.615Z,1033.37
2017-11-04T00:47:10.604Z,1033.34
2017-11-04T00:48:10.589Z,1033.36
2017-11-04T00:49:10.576Z,1033.36
2017-11-04T00:50:10.563Z,1033.34
2017-11-04T00:51:10.550Z,1033.35
2017-11-04T00:52:10.538Z,1033.35
2017-11-04T00:53:10.524Z,1033.36
2017-11-04T00:54:10.511Z,1033.33
2017-11-04T00:55:10.499Z,1033.36
2017-11-04T00:56:10.490Z,1033.31
2017-11-04T00:57:10.472Z,1033.27
2017-11-04T00:58:10.458Z,1033.24
2017-11-04T00:59:10.447Z,1033.25
2017-11-04T01:00:10.433Z,1033.18
2017-11-04T01:01:10.420Z,1033.2
2017-11-04T01:02:10.407Z,1033.18
2017-11-04T01:03:10.394Z,1033.15
2017-11-04T01:04:10.380Z,1033.2
2017-11-04T01:05:10.368Z,1033.17
2017-11-04T01:06:10.356Z,1033.16
2017-11-04T01:07:10.342Z,1033.17
2017-11-04T01:08:10.328Z,1033.17
2017-11-04T01:09:10.316Z,1033.14
2017-11-04T01:10:10.303Z,1033.12
2017-11-04T01:11:10.289Z,1033.11
2017-11-04T01:12:10.277Z,1033.06
2017-11-04T01:13:10.265Z,1033.09
2017-11-04T01:14:10.251Z,1033.05
2017-11-04T01:15:10.237Z,1032.98
2017-11-04T01:16:10.225Z,1032.99
2017-11-04T01:17:10.213Z,1032.98
2017-11-04T01:18:10.200Z,1032.98
2017-11-04T01:19:10.186Z,1033
2017-11-04T01:20:10.172Z,1032.93
2017-11-04T01:21:10.161Z,1032.97
2017-11-04T01:22:10.153Z,1032.97
2017-11-04T01:23:10.133Z,1032.94
2017-11-04T01:24:10.120Z,1032.96
2017-11-04T01:25:10.109Z,1032.93
2017-11-04T01:26:10.096Z,1032.92
2017-11-04T01:27:10.082Z,1032.96
2017-11-04T01:28:10.074Z,1032.93
2017-11-04T01:29:10.055Z,1032.91
2017-11-04T01:30:10.044Z,1032.93
2017-11-04T01:31:10.030Z,1032.88
2017-11-04T01:32:10.018Z,1032.87
2017-11-04T01:33:10.004Z,1032.85
2017-11-04T01:34:09.991Z,1032.81
2017-11-04T01:35:09.978Z,1032.75
2017-11-04T01:36:09.966Z,1032.75
2017-11-04T01:37:09.952Z,1032.68
2017-11-04T01:38:09.938Z,1032.66
2017-11-04T01:39:09.928Z,1032.65
2017-11-04T01:40:09.912Z,1032.62
2017-11-04T01:41:09.904Z,1032.61
2017-11-04T01:42:09.889Z,1032.66
2017-11-04T01:43:09.874Z,1032.63
2017-11-04T01:44:09.859Z,1032.64
2017-11-04T01:45:09.848Z,1032.6
2017-11-04T01:46:09.834Z,1032.64
2017-11-04T01:47:09.827Z,1032.57
2017-11-04T01:48:09.808Z,1032.57
2017-11-04T01:49:09.798Z,1032.62
2017-11-04T01:50:09.784Z,1032.58
2017-11-04T01:51:09.771Z,1032.59
2017-11-04T01:52:09.756Z,1032.57
2017-11-04T01:53:09.744Z,1032.58
2017-11-04T01:54:09.732Z,1032.56
2017-11-04T01:55:09.718Z,1032.56
2017-11-04T01:56:09.705Z,1032.55
2017-11-04T01:57:09.692Z,1032.56
2017-11-04T01:58:09.679Z,1032.53
2017-11-04T01:59:09.667Z,1032.51
2017-11-04T02:00:09.654Z,1032.5
2017-11-04T02:01:09.641Z,1032.51
2017-11-04T02:02:09.629Z,1032.5
2017-11-04T02:03:09.619Z,1032.47
2017-11-04T02:04:09.603Z,1032.49
2017-11-04T02:05:09.594Z,1032.47
2017-11-04T02:06:09.577Z,1032.46
2017-11-04T02:07:09.565Z,1032.44
2017-11-04T02:08:09.561Z,1032.46
2017-11-04T02:09:09.538Z,1032.44
2017-11-04T02:10:09.525Z,1032.45
2017-11-04T02:11:09.511Z,1032.45
2017-11-04T02:12:09.501Z,1032.43
2017-11-04T02:13:09.486Z,1032.42
2017-11-04T02:14:09.473Z,1032.43
2017-11-04T02:15:09.462Z,1032.43
2017-11-04T02:16:09.448Z,1032.43
2017-11-04T02:17:09.437Z,1032.43
2017-11-04T02:18:09.423Z,1032.44
2017-11-04T02:19:09.414Z,1032.39
2017-11-04T02:20:09.398Z,1032.41
2017-11-04T02:21:09.383Z,1032.38
2017-11-04T02:22:09.370Z,1032.38
2017-11-04T02:23:09.358Z,1032.38
2017-11-04T02:24:09.345Z,1032.38
2017-11-04T02:25:09.332Z,1032.37
2017-11-04T02:26:09.319Z,1032.33
2017-11-04T02:27:09.307Z,1032.37
2017-11-04T02:28:09.293Z,1032.33
2017-11-04T02:29:09.279Z,1032.3
2017-11-04T02:30:09.268Z,1032.32
2017-11-04T02:31:09.256Z,1032.32
2017-11-04T02:32:09.246Z,1032.32
2017-11-04T02:33:09.230Z,1032.3
2017-11-04T02:34:09.216Z,1032.3
2017-11-04T02:35:09.202Z,1032.32
2017-11-04T02:36:09.190Z,1032.29
2017-11-04T02:37:09.176Z,1032.29
2017-11-04T02:38:09.164Z,1032.31
2017-11-04T02:39:09.150Z,1032.29
2017-11-04T02:40:09.138Z,1032.33
2017-11-04T02:41:09.126Z,1032.26
2017-11-04T02:42:09.113Z,1032.29
2017-11-04T02:43:09.098Z,1032.31
2017-11-04T02:44:09.094Z,1032.32
2017-11-04T02:45:09.075Z,1032.3
2017-11-04T02:46:09.061Z,1032.29
2017-11-04T02:47:09.046Z,1032.3
2017-11-04T02:48:09.035Z,1032.29
2017-11-04T02:49:09.022Z,1032.3
2017-11-04T02:50:09.009Z,1032.22
2017-11-04T02:51:08.996Z,1032.21
2017-11-04T02:52:08.983Z,1032.26
2017-11-04T02:53:08.972Z,1032.21
2017-11-04T02:54:08.955Z,1032.21
2017-11-04T02:55:08.943Z,1032.2
2017-11-04T02:56:08.932Z,1032.2
2017-11-04T02:57:08.915Z,1032.23
2017-11-04T02:58:08.904Z,1032.22
2017-11-04T02:59:08.893Z,1032.24
2017-11-04T03:00:08.880Z,1032.22
2017-11-04T03:01:08.865Z,1032.24
2017-11-04T03:02:08.852Z,1032.19
2017-11-04T03:03:08.842Z,1032.23
2017-11-04T03:04:08.828Z,1032.19
2017-11-04T03:05:08.818Z,1032.21
2017-11-04T03:06:08.801Z,1032.21
2017-11-04T03:07:08.788Z,1032.18
2017-11-04T03:08:08.776Z,1032.19
2017-11-04T03:09:08.761Z,1032.22
2017-11-04T03:10:08.751Z,1032.21
2017-11-04T03:11:08.738Z,1032.22
2017-11-04T03:12:08.724Z,1032.2
2017-11-04T03:13:08.711Z,1032.19
2017-11-04T03:14:08.697Z,1032.24
2017-11-04T03:15:08.683Z,1032.19
2017-11-04T03:16:08.676Z,1032.19
2017-11-04T03:17:08.659Z,1032.16
2017-11-04T03:18:08.646Z,1032.15
2017-11-04T03:19:08.630Z,1032.16
2017-11-04T03:20:08.620Z,1032.16
2017-11-04T03:21:08.608Z,1032.14
2017-11-04T03:22:08.594Z,1032.16
2017-11-04T03:23:08.580Z,1032.14
2017-11-04T03:24:08.567Z,1032.13
2017-11-04T03:25:08.554Z,1032.14
2017-11-04T03:26:08.540Z,1032.11
2017-11-04T03:27:08.530Z,1032.13
2017-11-04T03:28:08.765Z,1032.14
2017-11-04T03:29:08.502Z,1032.11
2017-11-04T03:30:08.491Z,1032.12
2017-11-04T03:31:08.478Z,1032.15
2017-11-04T03:32:08.467Z,1032.14
2017-11-04T03:33:08.450Z,1032.16
2017-11-04T03:34:08.442Z,1032.1
2017-11-04T03:35:08.426Z,1032.1
2017-11-04T03:36:08.412Z,1032.07
2017-11-04T03:37:08.397Z,1032.13
2017-11-04T03:38:08.384Z,1032.1
2017-11-04T03:39:08.371Z,1032.1
2017-11-04T03:40:08.359Z,1032.05
2017-11-04T03:41:08.346Z,1032.06
2017-11-04T03:42:08.334Z,1031.99
2017-11-04T03:43:08.321Z,1032.01
2017-11-04T03:44:08.306Z,1031.98
2017-11-04T03:45:08.298Z,1031.96
2017-11-04T03:46:08.281Z,1031.96
2017-11-04T03:47:08.272Z,1031.97
2017-11-04T03:48:08.254Z,1031.95
2017-11-04T03:49:08.242Z,1031.94
2017-11-04T03:50:08.231Z,1031.95
2017-11-04T03:51:08.217Z,1031.98
2017-11-04T03:52:08.203Z,1031.97
2017-11-04T03:53:08.191Z,1031.93
2017-11-04T03:54:08.178Z,1031.92
2017-11-04T03:55:08.173Z,1031.92
2017-11-04T03:56:08.150Z,1031.91
2017-11-04T03:57:08.139Z,1031.92
2017-11-04T03:58:08.125Z,1031.95
2017-11-04T03:59:08.114Z,1031.93
2017-11-04T04:00:08.104Z,1031.92
2017-11-04T04:01:08.087Z,1031.9
2017-11-04T04:02:08.078Z,1031.88
2017-11-04T04:03:08.060Z,1031.92
2017-11-04T04:04:08.050Z,1031.86
2017-11-04T04:05:08.035Z,1031.86
2017-11-04T04:06:08.023Z,1031.85
2017-11-04T04:07:08.013Z,1031.86
2017-11-04T04:08:07.995Z,1031.85
2017-11-04T04:09:07.982Z,1031.84
2017-11-04T04:10:07.970Z,1031.8
2017-11-04T04:11:07.956Z,1031.82
2017-11-04T04:12:07.945Z,1031.82
2017-11-04T04:13:07.934Z,1031.81
2017-11-04T04:14:07.918Z,1031.78
2017-11-04T04:15:07.908Z,1031.78
2017-11-04T04:16:07.891Z,1031.81
2017-11-04T04:17:07.880Z,1031.76
2017-11-04T04:18:07.865Z,1031.75
2017-11-04T04:19:07.854Z,1031.75
2017-11-04T04:20:07.840Z,1031.72
2017-11-04T04:21:07.844Z,1031.75
2017-11-04T04:22:07.814Z,1031.74
2017-11-04T04:23:07.802Z,1031.68
2017-11-04T04:24:07.788Z,1031.71
2017-11-04T04:25:07.783Z,1031.73
2017-11-04T04:26:07.774Z,1031.68
2017-11-04T04:27:07.749Z,1031.72
2017-11-04T04:28:07.736Z,1031.73
2017-11-04T04:29:07.724Z,1031.71
2017-11-04T04:30:07.709Z,1031.73
2017-11-04T04:31:07.698Z,1031.72
2017-11-04T04:32:07.684Z,1031.73
2017-11-04T04:33:07.673Z,1031.75
2017-11-04T04:34:07.657Z,1031.69
2017-11-04T04:35:07.645Z,1031.66
2017-11-04T04:36:07.633Z,1031.69
2017-11-04T04:37:07.618Z,1031.69
2017-11-04T04:38:07.606Z,1031.67
2017-11-04T04:39:07.594Z,1031.64
2017-11-04T04:40:07.609Z,1031.65
2017-11-04T04:41:07.568Z,1031.65
2017-11-04T04:42:07.555Z,1031.68
2017-11-04T04:43:07.542Z,1031.66
2017-11-04T04:44:07.530Z,1031.65
2017-11-04T04:45:07.516Z,1031.63
2017-11-04T04:46:07.504Z,1031.66
2017-11-04T04:47:07.489Z,1031.66
2017-11-04T04:48:07.476Z,1031.64
2017-11-04T04:49:07.464Z,1031.65
2017-11-04T04:50:07.450Z,1031.65
2017-11-04T04:51:07.437Z,1031.64
2017-11-04T04:52:07.424Z,1031.64
2017-11-04T04:53:07.412Z,1031.64
2017-11-04T04:54:07.398Z,1031.67
2017-11-04T04:55:07.386Z,1031.66
2017-11-04T04:56:07.372Z,1031.66
2017-11-04T04:57:07.360Z,1031.63
2017-11-04T04:58:07.353Z,1031.63
2017-11-04T04:59:07.334Z,1031.68
2017-11-04T05:00:07.320Z,1031.62
2017-11-04T05:01:07.307Z,1031.64
2017-11-04T05:02:07.294Z,1031.65
2017-11-04T05:03:07.281Z,1031.64
2017-11-04T05:04:07.268Z,1031.64
2017-11-04T05:05:07.258Z,1031.67
2017-11-04T05:06:07.242Z,1031.65
2017-11-04T05:07:07.229Z,1031.65
2017-11-04T05:08:07.216Z,1031.64
2017-11-04T05:09:07.203Z,1031.66
2017-11-04T05:10:07.190Z,1031.64
2017-11-04T05:11:07.177Z,1031.61
2017-11-04T05:12:07.163Z,1031.61
2017-11-04T05:13:07.152Z,1031.59
2017-11-04T05:14:07.136Z,1031.6
2017-11-04T05:15:07.124Z,1031.62
2017-11-04T05:16:07.111Z,1031.59
2017-11-04T05:17:07.097Z,1031.59
2017-11-04T05:18:07.084Z,1031.52
2017-11-04T05:19:07.073Z,1031.59
2017-11-04T05:20:07.058Z,1031.54
2017-11-04T05:21:07.044Z,1031.57
2017-11-04T05:22:07.031Z,1031.55
2017-11-04T05:23:07.017Z,1031.48
2017-11-04T05:24:07.006Z,1031.52
2017-11-04T05:25:06.994Z,1031.56
2017-11-04T05:26:06.978Z,1031.53
2017-11-04T05:27:06.966Z,1031.52
2017-11-04T05:28:06.952Z,1031.55
2017-11-04T05:29:06.938Z,1031.53
2017-11-04T05:30:06.925Z,1031.57
2017-11-04T05:31:06.913Z,1031.58
2017-11-04T05:32:06.899Z,1031.56
2017-11-04T05:33:06.885Z,1031.53
2017-11-04T05:34:06.876Z,1031.55
2017-11-04T05:35:06.860Z,1031.56
2017-11-04T05:36:06.847Z,1031.6
2017-11-04T05:37:06.834Z,1031.61
2017-11-04T05:38:06.820Z,1031.62
2017-11-04T05:39:06.806Z,1031.65
2017-11-04T05:40:06.793Z,1031.65
2017-11-04T05:41:06.781Z,1031.61
2017-11-04T05:42:06.769Z,1031.63
2017-11-04T05:43:06.757Z,1031.62
2017-11-04T05:44:06.744Z,1031.62
2017-11-04T05:45:06.725Z,1031.63
2017-11-04T05:46:06.712Z,1031.57
2017-11-04T05:47:06.699Z,1031.56
2017-11-04T05:48:06.691Z,1031.52
2017-11-04T05:49:06.674Z,1031.53
2017-11-04T05:50:06.660Z,1031.47
2017-11-04T05:51:06.648Z,1031.4
2017-11-04T05:52:06.644Z,1031.42
2017-11-04T05:53:06.619Z,1031.43
2017-11-04T05:54:06.608Z,1031.41
2017-11-04T05:55:06.601Z,1031.37
2017-11-04T05:56:06.588Z,1031.38
2017-11-04T05:57:06.568Z,1031.37
2017-11-04T05:58:06.559Z,1031.42
2017-11-04T05:59:06.540Z,1031.39
2017-11-04T06:00:06.527Z,1031.43
2017-11-04T06:01:06.515Z,1031.41
2017-11-04T06:02:06.501Z,1031.44
2017-11-04T06:03:06.488Z,1031.45
2017-11-04T06:04:06.479Z,1031.48
2017-11-04T06:05:06.462Z,1031.48
2017-11-04T06:06:06.449Z,1031.47
2017-11-04T06:07:06.435Z,1031.49
2017-11-04T06:08:06.425Z,1031.48
2017-11-04T06:09:06.410Z,1031.51
2017-11-04T06:10:06.399Z,1031.47
2017-11-04T06:11:06.383Z,1031.48
2017-11-04T06:12:06.373Z,1031.47
2017-11-04T06:13:06.363Z,1031.51
2017-11-04T06:14:06.345Z,1031.5
2017-11-04T06:15:06.331Z,1031.48
2017-11-04T06:16:06.318Z,1031.46
2017-11-04T06:17:06.305Z,1031.48
2017-11-04T06:18:06.290Z,1031.46
2017-11-04T06:19:06.279Z,1031.43
2017-11-04T06:20:06.266Z,1031.43
2017-11-04T06:21:06.253Z,1031.43
2017-11-04T06:22:06.237Z,1031.44
2017-11-04T06:23:06.226Z,1031.45
2017-11-04T06:24:06.214Z,1031.4
2017-11-04T06:25:06.200Z,1031.43
2017-11-04T06:26:06.186Z,1031.38
2017-11-04T06:27:06.172Z,1031.38
2017-11-04T06:28:06.159Z,1031.37
2017-11-04T06:29:06.145Z,1031.35
2017-11-04T06:30:06.134Z,1031.33
2017-11-04T06:31:06.147Z,1031.28
2017-11-04T06:32:06.108Z,1031.28
2017-11-04T06:33:06.093Z,1031.26
2017-11-04T06:34:06.083Z,1031.25
2017-11-04T06:35:06.320Z,1031.2
2017-11-04T06:36:06.055Z,1031.17
2017-11-04T06:37:06.041Z,1031.2
2017-11-04T06:38:06.028Z,1031.14
2017-11-04T06:39:06.018Z,1031.09
2017-11-04T06:40:06.004Z,1031.08
2017-11-04T06:41:05.991Z,1031.01
2017-11-04T06:42:05.978Z,1031
2017-11-04T06:43:05.965Z,1030.94
2017-11-04T06:44:05.953Z,1030.94
2017-11-04T06:45:05.939Z,1030.89
2017-11-04T06:46:05.925Z,1030.87
2017-11-04T06:47:05.914Z,1030.76
2017-11-04T06:48:05.901Z,1030.73
2017-11-04T06:49:05.890Z,1030.7
2017-11-04T06:50:05.876Z,1030.65
2017-11-04T06:51:05.863Z,1030.57
2017-11-04T06:52:05.850Z,1030.56
2017-11-04T06:53:05.839Z,1030.53
2017-11-04T06:54:05.824Z,1030.5
2017-11-04T06:55:05.812Z,1030.5
2017-11-04T06:56:05.804Z,1030.5
2017-11-04T06:57:05.789Z,1030.46
2017-11-04T06:58:05.774Z,1030.43
2017-11-04T06:59:05.763Z,1030.4
2017-11-04T07:00:05.755Z,1030.41
2017-11-04T07:01:05.739Z,1030.36
2017-11-04T07:02:05.725Z,1030.37
2017-11-04T07:03:05.713Z,1030.36
2017-11-04T07:04:05.702Z,1030.25
2017-11-04T07:05:05.691Z,1030.23
2017-11-04T07:06:05.676Z,1030.08
2017-11-04T07:07:05.665Z,1030.04
2017-11-04T07:08:05.654Z,1030
2017-11-04T07:09:05.641Z,1029.98
2017-11-04T07:10:05.629Z,1029.93
2017-11-04T07:11:05.617Z,1029.9
2017-11-04T07:12:05.605Z,1029.95
2017-11-04T07:13:05.598Z,1029.89
2017-11-04T07:14:05.581Z,1029.88
2017-11-04T07:15:05.574Z,1029.89
2017-11-04T07:16:05.557Z,1029.87
2017-11-04T07:17:05.547Z,1029.86
2017-11-04T07:18:05.533Z,1029.87
2017-11-04T07:19:05.521Z,1029.85
2017-11-04T07:20:05.509Z,1029.87
2017-11-04T07:21:05.498Z,1029.81
2017-11-04T07:22:05.486Z,1029.8
2017-11-04T07:23:05.476Z,1029.77
2017-11-04T07:24:05.462Z,1029.74
2017-11-04T07:25:05.451Z,1029.73
2017-11-04T07:26:05.440Z,1029.71
2017-11-04T07:27:05.428Z,1029.7
2017-11-04T07:28:05.417Z,1029.73
2017-11-04T07:29:05.406Z,1029.71
2017-11-04T07:30:05.393Z,1029.67
2017-11-04T07:31:05.381Z,1029.69
2017-11-04T07:32:05.392Z,1029.66
2017-11-04T07:33:05.359Z,1029.62
2017-11-04T07:34:05.347Z,1029.64
2017-11-04T07:35:05.335Z,1029.63
2017-11-04T07:36:05.323Z,1029.62
2017-11-04T07:37:05.563Z,1029.57
2017-11-04T07:38:05.302Z,1029.59
2017-11-04T07:39:05.288Z,1029.54
2017-11-04T07:40:05.279Z,1029.54
2017-11-04T07:41:05.272Z,1029.45
2017-11-04T07:42:05.255Z,1029.42
2017-11-04T07:43:05.245Z,1029.41
2017-11-04T07:44:05.236Z,1029.38
2017-11-04T07:45:05.223Z,1029.35
2017-11-04T07:46:05.210Z,1029.32
2017-11-04T07:47:05.201Z,1029.27
2017-11-04T07:48:05.188Z,1029.26
2017-11-04T07:49:05.181Z,1029.23
2017-11-04T07:50:05.166Z,1029.24
2017-11-04T07:51:05.154Z,1029.2
2017-11-04T07:52:05.143Z,1029.13
2017-11-04T07:53:05.131Z,1029.11
2017-11-04T07:54:05.121Z,1029.08
2017-11-04T07:55:05.110Z,1029.05
2017-11-04T07:56:05.099Z,1029.03
2017-11-04T07:57:05.087Z,1029.02
2017-11-04T07:58:05.076Z,1029.01
2017-11-04T07:59:05.065Z,1028.96
2017-11-04T08:00:05.052Z,1028.98
2017-11-04T08:01:05.042Z,1028.94
2017-11-04T08:02:05.035Z,1028.93
2017-11-04T08:03:05.021Z,1028.94
2017-11-04T08:04:05.010Z,1028.9
2017-11-04T08:05:05.001Z,1028.86
2017-11-04T08:06:04.995Z,1028.87
2017-11-04T08:07:04.978Z,1028.81
2017-11-04T08:08:04.978Z,1028.83
2017-11-04T08:09:04.955Z,1028.77
2017-11-04T08:10:04.944Z,1028.78
2017-11-04T08:11:04.932Z,1028.73
2017-11-04T08:12:04.923Z,1028.74
2017-11-04T08:13:04.911Z,1028.68
2017-11-04T08:14:04.901Z,1028.72
2017-11-04T08:15:04.891Z,1028.75
2017-11-04T08:16:04.879Z,1028.72
2017-11-04T08:17:04.868Z,1028.76
2017-11-04T08:18:04.859Z,1028.71
2017-11-04T08:19:04.848Z,1028.68
2017-11-04T08:20:04.837Z,1028.65
2017-11-04T08:21:04.825Z,1028.62
2017-11-04T08:22:04.813Z,1028.57
2017-11-04T08:23:04.804Z,1028.56
2017-11-04T08:24:04.794Z,1028.51
2017-11-04T08:25:04.783Z,1028.47
2017-11-04T08:26:04.773Z,1028.45
2017-11-04T08:27:04.762Z,1028.39
2017-11-04T08:28:04.752Z,1028.37
2017-11-04T08:29:04.742Z,1028.38
2017-11-04T08:30:04.732Z,1028.34
2017-11-04T08:31:04.719Z,1028.3
2017-11-04T08:32:04.709Z,1028.28
2017-11-04T08:33:04.699Z,1028.3
2017-11-04T08:34:04.689Z,1028.25
2017-11-04T08:35:04.678Z,1028.26
2017-11-04T08:36:04.668Z,1028.22
2017-11-04T08:37:04.657Z,1028.18
2017-11-04T08:38:04.647Z,1028.18
2017-11-04T08:39:04.636Z,1028.14
2017-11-04T08:40:04.626Z,1028.13
2017-11-04T08:41:04.616Z,1028.12
2017-11-04T08:42:04.605Z,1028.11
2017-11-04T08:43:04.603Z,1028.07
2017-11-04T08:44:04.586Z,1028.06
2017-11-04T08:45:04.578Z,1028.02
2017-11-04T08:46:04.566Z,1027.97
2017-11-04T08:47:04.556Z,1027.93
2017-11-04T08:48:04.544Z,1027.94
2017-11-04T08:49:04.534Z,1027.94
2017-11-04T08:50:04.524Z,1027.92
2017-11-04T08:51:04.529Z,1027.89
2017-11-04T08:52:04.504Z,1027.88
2017-11-04T08:53:04.495Z,1027.88
2017-11-04T08:54:04.484Z,1027.85
2017-11-04T08:55:04.474Z,1027.81
2017-11-04T08:56:04.463Z,1027.76
2017-11-04T08:57:04.454Z,1027.73
2017-11-04T08:58:04.445Z,1027.75
2017-11-04T08:59:04.434Z,1027.73
2017-11-04T09:00:04.429Z,1027.71
2017-11-04T09:01:04.414Z,1027.66
2017-11-04T09:02:04.406Z,1027.63
2017-11-04T09:03:04.396Z,1027.59
2017-11-04T09:04:04.386Z,1027.6
2017-11-04T09:05:04.376Z,1027.6
2017-11-04T09:06:04.365Z,1027.59
2017-11-04T09:07:04.356Z,1027.58
2017-11-04T09:08:04.346Z,1027.54
2017-11-04T09:09:04.337Z,1027.5
2017-11-04T09:10:04.327Z,1027.41
2017-11-04T09:11:04.318Z,1027.39
2017-11-04T09:12:04.308Z,1027.35
2017-11-04T09:13:04.299Z,1027.34
2017-11-04T09:14:04.290Z,1027.28
2017-11-04T09:15:04.280Z,1027.19
2017-11-04T09:16:04.270Z,1027.17
2017-11-04T09:17:04.259Z,1027.12
2017-11-04T09:18:04.250Z,1027.1
2017-11-04T09:19:04.243Z,1027.15
2017-11-04T09:20:04.232Z,1027.1
2017-11-04T09:21:04.222Z,1027.05
2017-11-04T09:22:04.214Z,1026.97
2017-11-04T09:23:04.204Z,1026.92
2017-11-04T09:24:04.195Z,1026.89
2017-11-04T09:25:04.186Z,1026.88
2017-11-04T09:26:04.178Z,1026.79
2017-11-04T09:27:04.169Z,1026.78
2017-11-04T09:28:04.158Z,1026.74
2017-11-04T09:29:04.150Z,1026.7
2017-11-04T09:30:04.147Z,1026.74
2017-11-04T09:31:04.133Z,1026.66
2017-11-04T09:32:04.124Z,1026.59
2017-11-04T09:33:04.118Z,1026.56
2017-11-04T09:34:04.105Z,1026.5
2017-11-04T09:35:04.099Z,1026.46
2017-11-04T09:36:04.087Z,1026.41
2017-11-04T09:37:04.079Z,1026.38
2017-11-04T09:38:04.071Z,1026.31
2017-11-04T09:39:04.065Z,1026.26
2017-11-04T09:40:04.053Z,1026.27
2017-11-04T09:41:04.046Z,1026.24
2017-11-04T09:42:04.036Z,1026.23
2017-11-04T09:43:04.027Z,1026.21
2017-11-04T09:44:04.018Z,1026.13
2017-11-04T09:45:04.011Z,1026.12
2017-11-04T09:46:04.000Z,1026.08
2017-11-04T09:47:03.994Z,1026.06
2017-11-04T09:48:03.986Z,1026.04
2017-11-04T09:49:03.982Z,1025.98
2017-11-04T09:50:03.975Z,1025.93
2017-11-04T09:51:03.961Z,1025.93
2017-11-04T09:52:03.952Z,1025.89
2017-11-04T09:53:03.945Z,1025.88
2017-11-04T09:54:03.936Z,1025.91
2017-11-04T09:55:03.927Z,1025.89
2017-11-04T09:56:03.920Z,1025.91
2017-11-04T09:57:03.910Z,1025.83
2017-11-04T09:58:03.903Z,1025.83
2017-11-04T09:59:03.894Z,1025.82
2017-11-04T10:00:03.887Z,1025.81
2017-11-04T10:01:03.887Z,1025.81
2017-11-04T10:02:03.872Z,1025.81
2017-11-04T10:03:03.863Z,1025.8
2017-11-04T10:04:03.857Z,1025.82
2017-11-04T10:05:03.850Z,1025.83
2017-11-04T10:06:03.840Z,1025.84
2017-11-04T10:07:03.834Z,1025.84
2017-11-04T10:08:03.822Z,1025.81
2017-11-04T10:09:03.826Z,1025.77
2017-11-04T10:10:03.808Z,1025.75
2017-11-04T10:11:03.801Z,1025.69
2017-11-04T10:12:03.803Z,1025.62
2017-11-04T10:13:03.785Z,1025.48
2017-11-04T10:14:03.783Z,1025.5
2017-11-04T10:15:03.769Z,1025.42
2017-11-04T10:16:03.761Z,1025.4
2017-11-04T10:17:03.757Z,1025.38
2017-11-04T10:18:03.757Z,1025.28
2017-11-04T10:19:03.737Z,1025.2
2017-11-04T10:20:03.729Z,1025.15
2017-11-04T10:21:03.723Z,1025.1
2017-11-04T10:22:03.715Z,1025.11
2017-11-04T10:23:03.707Z,1025.07
2017-11-04T10:24:03.705Z,1025.01
2017-11-04T10:25:03.694Z,1024.96
2017-11-04T10:26:03.699Z,1024.89
2017-11-04T10:27:03.676Z,1024.9
2017-11-04T10:28:03.668Z,1024.92
2017-11-04T10:29:03.662Z,1024.9
2017-11-04T10:30:03.654Z,1024.89
2017-11-04T10:31:03.647Z,1024.88
2017-11-04T10:32:03.639Z,1024.85
2017-11-04T10:33:03.643Z,1024.87
2017-11-04T10:34:03.628Z,1024.9
2017-11-04T10:35:03.617Z,1024.87
2017-11-04T10:36:03.611Z,1024.79
2017-11-04T10:37:03.608Z,1024.78
2017-11-04T10:38:03.595Z,1024.74
2017-11-04T10:39:03.590Z,1024.74
2017-11-04T10:40:03.582Z,1024.72
2017-11-04T10:41:03.574Z,1024.65
2017-11-04T10:42:03.567Z,1024.61
2017-11-04T10:43:03.562Z,1024.53
2017-11-04T10:44:03.554Z,1024.5
2017-11-04T10:45:03.546Z,1024.43
2017-11-04T10:46:03.540Z,1024.38
2017-11-04T10:47:03.533Z,1024.38
2017-11-04T10:48:03.525Z,1024.39
2017-11-04T10:49:03.523Z,1024.33
2017-11-04T10:50:03.513Z,1024.36
2017-11-04T10:51:03.508Z,1024.36
2017-11-04T10:52:03.500Z,1024.36
2017-11-04T10:53:03.489Z,1024.31
2017-11-04T10:54:03.492Z,1024.28
2017-11-04T10:55:03.476Z,1024.26
2017-11-04T10:56:03.470Z,1024.24
2017-11-04T10:57:03.462Z,1024.21
2017-11-04T10:58:03.469Z,1024.14
2017-11-04T10:59:03.450Z,1024.09
2017-11-04T11:00:03.446Z,1024.07
2017-11-04T11:01:03.436Z,1024.08
2017-11-04T11:02:03.438Z,1024.03
2017-11-04T11:03:03.423Z,1024.03
2017-11-04T11:04:03.417Z,1023.99
2017-11-04T11:05:03.411Z,1023.99
2017-11-04T11:06:03.406Z,1024.01
2017-11-04T11:07:03.403Z,1023.97
2017-11-04T11:08:03.392Z,1024
2017-11-04T11:09:03.383Z,1024.02
2017-11-04T11:10:03.377Z,1023.98
2017-11-04T11:11:03.379Z,1023.98
2017-11-04T11:12:03.363Z,1023.98
2017-11-04T11:13:03.357Z,1024.05
2017-11-04T11:14:03.350Z,1024.06
2017-11-04T11:15:03.344Z,1024.08
2017-11-04T11:16:03.338Z,1024.05
2017-11-04T11:17:03.332Z,1024.1
2017-11-04T11:18:03.324Z,1024.09
2017-11-04T11:19:03.318Z,1024.11
2017-11-04T11:20:03.312Z,1024.11
2017-11-04T11:21:03.305Z,1024.16
2017-11-04T11:22:03.299Z,1024.17
2017-11-04T11:23:03.291Z,1024.19
2017-11-04T11:24:03.294Z,1024.23
2017-11-04T11:25:03.279Z,1024.25
2017-11-04T11:26:03.273Z,1024.32
2017-11-04T11:27:03.269Z,1024.3
2017-11-04T11:28:03.260Z,1024.36
2017-11-04T11:29:03.256Z,1024.39
2017-11-04T11:30:03.246Z,1024.39
2017-11-04T11:31:03.238Z,1024.4
2017-11-04T11:32:03.238Z,1024.42
2017-11-04T11:33:03.226Z,1024.42
2017-11-04T11:34:03.219Z,1024.48
2017-11-04T11:35:03.212Z,1024.47
2017-11-04T11:36:03.206Z,1024.47
2017-11-04T11:37:03.199Z,1024.42
2017-11-04T11:38:03.192Z,1024.41
2017-11-04T11:39:03.193Z,1024.39
2017-11-04T11:40:03.178Z,1024.39
2017-11-04T11:41:03.171Z,1024.38
2017-11-04T11:42:03.166Z,1024.37
2017-11-04T11:43:03.158Z,1024.42
2017-11-04T11:44:03.156Z,1024.32
2017-11-04T11:45:03.148Z,1024.35
2017-11-04T11:46:03.138Z,1024.33
2017-11-04T11:47:03.130Z,1024.25
2017-11-04T11:48:03.124Z,1024.24
2017-11-04T11:49:03.117Z,1024.17
2017-11-04T11:50:03.110Z,1024.13
2017-11-04T11:51:03.104Z,1024.08
2017-11-04T11:52:03.097Z,1024.08
2017-11-04T11:53:03.090Z,1024.05
2017-11-04T11:54:03.083Z,1024.06
2017-11-04T11:55:03.077Z,1024.09
2017-11-04T11:56:03.068Z,1024.13
2017-11-04T11:57:03.063Z,1024.13
2017-11-04T11:58:03.055Z,1024.14
2017-11-04T11:59:03.048Z,1024.15
2017-11-04T12:00:03.042Z,1024.19
2017-11-04T12:01:03.035Z,1024.17
2017-11-04T12:02:03.034Z,1024.13
2017-11-04T12:03:03.021Z,1024.08
2017-11-04T12:04:03.014Z,1024.07
2017-11-04T12:05:03.006Z,1024.05
2017-11-04T12:06:02.999Z,1024.02
2017-11-04T12:07:02.993Z,1024.02
2017-11-04T12:08:02.987Z,1024.03